Saint Johns, Michigan
Current Conditions -  °F | °C
As of 1:53 PM on Friday 21 Nov 2014 (Local Time) from KLAN Reporting Station
Unknown Precip Unknown Precip  
Wind Chill: 14°   Ceiling: Unl
Heat Index: 25°   Visibility: 10mi
Dew Point: 12°   Wind: 12mph
Humidity: 58%   Direction: 230°SW
Pressure: 30.42"   Gusts: NA
Location:  43°N, 84.56°W
Report Text: KLAN 211853Z 23010KT 10SM UP CLR M04/M11 A3042 RMK AO2 UPB25 SLP318 P0000 T10391111
Loading
Personal Weather Stations






























Interactive Weather Map New forecast layout! Learn more

10-Day Weather Forecast

Advertisements
Track Severe Weather on mobile